createdAt,value
2023-02-23T00:02:05.197Z,99297.31
2023-02-23T00:04:32.554Z,99294.81
2023-02-23T00:06:59.677Z,99295.66
2023-02-23T00:11:57.565Z,99292.72
2023-02-23T00:16:57.337Z,99290.28
2023-02-23T00:19:25.204Z,99286.75
2023-02-23T00:21:53.650Z,99287.63
2023-02-23T00:24:21.298Z,99289.06
2023-02-23T00:26:51.779Z,99293.22
2023-02-23T00:29:22.707Z,99285.81
2023-02-23T00:31:50.702Z,99286.63
2023-02-23T00:34:21.350Z,99285.19
2023-02-23T00:36:54.529Z,99291.94
2023-02-23T00:39:23.926Z,99272.56
2023-02-23T00:41:52.685Z,99279.59
2023-02-23T00:44:23.765Z,99270.53
2023-02-23T00:46:52.246Z,99280.22
2023-02-23T00:49:22.131Z,99274.88
2023-02-23T00:51:49.456Z,99272.03
2023-02-23T00:54:17.805Z,99274.88
2023-02-23T00:56:45.431Z,99270.91
2023-02-23T00:59:12.901Z,99275.50
2023-02-23T01:01:42.104Z,99274.44
2023-02-23T01:04:10.181Z,99271.22
2023-02-23T01:06:41.068Z,99277.38
2023-02-23T01:09:09.916Z,99282.09
2023-02-23T01:11:36.684Z,99285.38
2023-02-23T01:14:03.749Z,99288.25
2023-02-23T01:16:33.808Z,99287.63
2023-02-23T01:19:03.739Z,99275.50
2023-02-23T01:21:38.857Z,99274.72
2023-02-23T01:24:06.025Z,99270.63
2023-02-23T01:26:36.440Z,99273.50
2023-02-23T01:29:10.791Z,99269.19
2023-02-23T01:31:40.391Z,99269.78
2023-02-23T01:34:08.310Z,99269.41
2023-02-23T01:36:39.105Z,99265.06
2023-02-23T01:39:08.103Z,99267.94
2023-02-23T01:41:37.004Z,99266.53
2023-02-23T01:46:54.677Z,99268.34
2023-02-23T01:49:27.934Z,99268.09
2023-02-23T01:52:07.310Z,99262.72
2023-02-23T01:54:38.213Z,99263.28
2023-02-23T01:57:07.792Z,99264.53
2023-02-23T01:59:44.888Z,99270.91
2023-02-23T02:02:13.515Z,99268.88
2023-02-23T02:04:45.649Z,99262.88
2023-02-23T02:07:18.963Z,99259.44
2023-02-23T02:10:07.414Z,99265.88
2023-02-23T02:12:34.253Z,99263.63
2023-02-23T02:15:04.682Z,99266.09
2023-02-23T02:17:48.412Z,99264.88
2023-02-23T02:20:30.379Z,99259.94
2023-02-23T02:23:15.140Z,99260.78
2023-02-23T02:25:57.407Z,99265.94
2023-02-23T02:28:30.424Z,99257.50
2023-02-23T02:31:30.538Z,99259.56
2023-02-23T02:34:16.067Z,99255.81
2023-02-23T02:37:10.892Z,99259.94
2023-02-23T02:39:49.864Z,99254.78
2023-02-23T02:42:30.317Z,99256.00
2023-02-23T02:45:30.560Z,99257.47
2023-02-23T02:48:00.196Z,99254.16
2023-02-23T02:50:35.813Z,99255.81
2023-02-23T02:53:10.334Z,99257.47
2023-02-23T02:55:43.737Z,99255.59
2023-02-23T02:58:12.714Z,99250.44
2023-02-23T03:01:06.328Z,99253.72
2023-02-23T03:04:06.077Z,99250.59
2023-02-23T03:06:56.992Z,99261.50
2023-02-23T03:09:30.385Z,99261.94
2023-02-23T03:15:19.922Z,99256.59
2023-02-23T03:18:08.001Z,99252.09
2023-02-23T03:21:02.561Z,99257.22
2023-02-23T03:23:48.993Z,99255.09
2023-02-23T03:26:30.419Z,99256.50
2023-02-23T03:29:30.498Z,99257.38
2023-02-23T03:32:30.529Z,99254.13
2023-02-23T03:35:30.545Z,99265.41
2023-02-23T03:38:25.864Z,99265.19
2023-02-23T03:41:15.147Z,99265.19
2023-02-23T03:44:20.101Z,99266.03
2023-02-23T03:47:06.698Z,99267.59
2023-02-23T03:50:01.797Z,99261.22
2023-02-23T03:52:29.578Z,99268.09
2023-02-23T03:55:28.018Z,99273.06
2023-02-23T03:58:21.111Z,99274.31
2023-02-23T04:01:10.035Z,99275.56
2023-02-23T04:03:59.632Z,99271.44
2023-02-23T04:06:49.207Z,99271.88
2023-02-23T04:12:23.625Z,99270.44
2023-02-23T04:15:15.340Z,99279.31
2023-02-23T04:17:43.235Z,99273.34
2023-02-23T04:20:14.416Z,99268.47
2023-02-23T04:22:41.233Z,99277.53
2023-02-23T04:25:09.202Z,99272.13
2023-02-23T04:27:36.619Z,99276.91
2023-02-23T04:30:11.647Z,99274.63
2023-02-23T04:32:38.609Z,99272.19
2023-02-23T04:35:05.701Z,99272.97
2023-02-23T04:37:32.511Z,99274.22
2023-02-23T04:39:59.198Z,99276.66
2023-02-23T04:42:26.927Z,99279.28
2023-02-23T04:44:53.955Z,99274.16
2023-02-23T04:47:20.978Z,99285.50
2023-02-23T04:49:47.742Z,99280.63
2023-02-23T04:52:14.535Z,99282.78
2023-02-23T04:54:42.163Z,99282.34
2023-02-23T04:57:10.343Z,99277.22
2023-02-23T04:59:37.107Z,99281.13
2023-02-23T05:02:04.048Z,99276.59
2023-02-23T05:04:31.078Z,99283.22
2023-02-23T05:06:58.394Z,99283.22
2023-02-23T05:09:25.779Z,99285.25
2023-02-23T05:11:52.747Z,99280.59
2023-02-23T05:14:19.446Z,99279.16
2023-02-23T05:16:46.538Z,99281.81
2023-02-23T05:19:15.854Z,99278.69
2023-02-23T05:21:42.644Z,99288.63
2023-02-23T05:24:09.505Z,99286.13
2023-02-23T05:26:36.716Z,99281.19
2023-02-23T05:29:03.749Z,99283.69
2023-02-23T05:31:30.775Z,99281.88
2023-02-23T05:33:57.494Z,99282.84
2023-02-23T05:36:24.211Z,99274.22
2023-02-23T05:38:50.999Z,99276.31
2023-02-23T05:41:21.262Z,99270.38
2023-02-23T05:43:49.252Z,99268.88
2023-02-23T05:46:19.849Z,99270.28
2023-02-23T05:48:47.808Z,99278.69
2023-02-23T05:51:16.966Z,99280.53
2023-02-23T05:53:44.790Z,99280.78
2023-02-23T05:56:20.568Z,99278.09
2023-02-23T05:58:48.815Z,99277.09
2023-02-23T06:01:15.804Z,99286.34
2023-02-23T06:03:42.515Z,99282.47
2023-02-23T06:06:09.368Z,99281.25
2023-02-23T06:08:36.110Z,99279.97
2023-02-23T06:11:04.450Z,99280.38
2023-02-23T06:13:31.855Z,99278.75
2023-02-23T06:16:02.189Z,99283.28
2023-02-23T06:18:30.616Z,99292.19
2023-02-23T06:21:01.456Z,99291.56
2023-02-23T06:25:55.010Z,99299.19
2023-02-23T06:28:21.916Z,99303.53
2023-02-23T06:30:51.464Z,99303.16
2023-02-23T06:33:18.751Z,99306.47
2023-02-23T06:35:46.336Z,99301.09
2023-02-23T06:38:13.068Z,99308.75
2023-02-23T06:40:40.083Z,99309.38
2023-02-23T06:43:06.735Z,99312.31
2023-02-23T06:45:33.517Z,99314.41
2023-02-23T06:48:01.186Z,99317.47
2023-02-23T06:52:56.858Z,99318.78
2023-02-23T06:55:24.012Z,99322.31
2023-02-23T06:57:52.150Z,99331.72
2023-02-23T07:00:19.600Z,99322.69
2023-02-23T07:02:46.387Z,99327.56
2023-02-23T07:05:13.210Z,99331.84
2023-02-23T07:07:40.020Z,99328.78
2023-02-23T07:10:07.625Z,99333.44
2023-02-23T07:12:34.378Z,99329.66
2023-02-23T07:15:01.092Z,99332.91
2023-02-23T07:17:27.821Z,99333.19
2023-02-23T07:19:54.815Z,99334.03
2023-02-23T07:22:22.627Z,99339.38
2023-02-23T07:24:49.573Z,99336.09
2023-02-23T07:27:18.921Z,99337.56
2023-02-23T07:29:45.619Z,99343.06
2023-02-23T07:32:12.438Z,99334.00
2023-02-23T07:34:40.063Z,99333.63
2023-02-23T07:37:06.910Z,99340.69
2023-02-23T07:39:33.912Z,99338.91
2023-02-23T07:42:00.691Z,99329.19
2023-02-23T07:44:27.420Z,99333.13
2023-02-23T07:46:54.595Z,99334.97
2023-02-23T07:49:21.349Z,99337.25
2023-02-23T07:51:48.318Z,99340.69
2023-02-23T07:54:16.262Z,99340.13
2023-02-23T07:56:42.927Z,99340.38
2023-02-23T07:59:10.211Z,99343.88
2023-02-23T08:01:37.057Z,99342.84
2023-02-23T08:04:03.856Z,99342.84
2023-02-23T08:06:31.320Z,99335.81
2023-02-23T08:09:02.367Z,99340.75
2023-02-23T08:14:00.173Z,99343.44
2023-02-23T08:16:32.395Z,99349.84
2023-02-23T08:19:02.505Z,99354.59
2023-02-23T08:21:30.570Z,99347.78
2023-02-23T08:23:58.255Z,99359.34
2023-02-23T08:26:25.971Z,99358.97
2023-02-23T08:28:54.440Z,99357.69
2023-02-23T08:31:24.998Z,99360.59
2023-02-23T08:33:52.600Z,99360.16
2023-02-23T08:36:21.084Z,99362.66
2023-02-23T08:38:48.739Z,99356.25
2023-02-23T08:41:15.902Z,99359.16
2023-02-23T08:43:44.131Z,99360.59
2023-02-23T08:46:11.809Z,99365.34
2023-02-23T08:48:40.740Z,99365.13
2023-02-23T08:51:08.632Z,99364.31
2023-02-23T08:53:36.577Z,99360.19
2023-02-23T08:56:06.307Z,99357.25
2023-02-23T08:58:35.660Z,99364.69
2023-02-23T09:01:02.917Z,99357.25
2023-02-23T09:03:30.880Z,99367.63
2023-02-23T09:06:08.835Z,99359.31
2023-02-23T09:08:36.188Z,99359.72
2023-02-23T09:11:02.977Z,99365.09
2023-02-23T09:13:30.593Z,99363.66
2023-02-23T09:15:57.438Z,99360.50
2023-02-23T09:18:30.523Z,99362.19
2023-02-23T09:20:57.269Z,99364.25
2023-02-23T09:23:24.900Z,99366.50
2023-02-23T09:25:51.595Z,99360.09
2023-02-23T09:28:20.550Z,99356.78
2023-02-23T09:30:47.874Z,99357.25
2023-02-23T09:33:15.047Z,99364.44
2023-02-23T09:35:41.984Z,99361.31
2023-02-23T09:38:09.558Z,99360.06
2023-02-23T09:40:53.370Z,99362.97
2023-02-23T09:43:30.641Z,99363.72
2023-02-23T09:46:14.798Z,99361.63
2023-02-23T09:48:43.374Z,99362.66
2023-02-23T09:51:18.117Z,99365.75
2023-02-23T09:53:51.245Z,99364.94
2023-02-23T09:56:31.985Z,99370.28
2023-02-23T09:59:01.165Z,99362.84
2023-02-23T10:01:30.646Z,99367.81
2023-02-23T10:04:03.421Z,99371.28
2023-02-23T10:06:30.829Z,99377.22
2023-02-23T10:09:04.185Z,99374.22
2023-02-23T10:11:44.185Z,99377.97
2023-02-23T10:14:29.684Z,99378.88
2023-02-23T10:17:17.972Z,99383.66
2023-02-23T10:20:13.430Z,99382.59
2023-02-23T10:22:41.891Z,99386.03
2023-02-23T10:25:14.595Z,99382.50
2023-02-23T10:27:45.234Z,99375.28
2023-02-23T10:30:19.657Z,99379.69
2023-02-23T10:32:52.800Z,99382.56
2023-02-23T10:35:21.914Z,99379.56
2023-02-23T10:37:50.114Z,99379.91
2023-02-23T10:40:22.301Z,99375.19
2023-02-23T10:42:50.134Z,99378.34
2023-02-23T10:45:25.685Z,99373.19
2023-02-23T10:47:58.763Z,99378.50
2023-02-23T10:53:00.872Z,99373.13
2023-02-23T10:55:30.576Z,99377.63
2023-02-23T10:58:19.249Z,99376.69
2023-02-23T11:00:53.759Z,99381.78
2023-02-23T11:03:30.840Z,99376.00
2023-02-23T11:06:01.210Z,99375.47
2023-02-23T11:08:30.937Z,99373.75
2023-02-23T11:11:19.431Z,99372.94
2023-02-23T11:13:49.479Z,99372.84
2023-02-23T11:16:29.921Z,99369.53
2023-02-23T11:19:06.566Z,99364.44
2023-02-23T11:21:38.997Z,99369.25
2023-02-23T11:24:25.146Z,99365.63
2023-02-23T11:26:54.773Z,99355.56
2023-02-23T11:31:59.186Z,99356.44
2023-02-23T11:37:01.217Z,99351.38
2023-02-23T11:39:28.214Z,99351.50
2023-02-23T11:42:19.504Z,99346.28
2023-02-23T11:45:16.441Z,99347.97
2023-02-23T11:47:54.676Z,99345.19
2023-02-23T11:50:29.669Z,99342.94
2023-02-23T11:53:14.661Z,99347.16
2023-02-23T11:55:48.252Z,99343.56
2023-02-23T11:58:23.151Z,99338.81
2023-02-23T12:01:17.528Z,99342.34
2023-02-23T12:03:56.905Z,99338.16
2023-02-23T12:06:31.849Z,99341.63
2023-02-23T12:09:23.813Z,99324.22
2023-02-23T12:12:23.106Z,99327.53
2023-02-23T12:14:56.564Z,99332.03
2023-02-23T12:17:29.693Z,99331.66
2023-02-23T12:20:13.819Z,99331.25
2023-02-23T12:22:45.812Z,99330.84
2023-02-23T12:25:27.721Z,99327.84
2023-02-23T12:28:30.701Z,99321.38
2023-02-23T12:31:02.959Z,99320.56
2023-02-23T12:36:39.455Z,99313.06
2023-02-23T12:39:30.585Z,99311.69
2023-02-23T12:42:35.299Z,99318.66
2023-02-23T12:45:06.717Z,99317.25
2023-02-23T12:47:38.473Z,99317.94
2023-02-23T12:50:21.563Z,99308.78
2023-02-23T12:53:23.624Z,99316.75
2023-02-23T12:56:04.616Z,99299.66
2023-02-23T12:58:38.407Z,99308.97
2023-02-23T13:01:39.762Z,99299.91
2023-02-23T13:04:30.801Z,99310.00
2023-02-23T13:07:04.334Z,99310.44
2023-02-23T13:09:39.412Z,99310.00
2023-02-23T13:12:21.672Z,99305.13
2023-02-23T13:15:15.637Z,99301.28
2023-02-23T13:17:55.767Z,99296.94
2023-02-23T13:20:33.806Z,99304.88
2023-02-23T13:23:39.470Z,99307.13
2023-02-23T13:26:29.582Z,99304.81
2023-02-23T13:29:06.464Z,99293.31
2023-02-23T13:31:36.906Z,99291.69
2023-02-23T13:34:07.871Z,99295.50
2023-02-23T13:36:36.156Z,99282.38
2023-02-23T13:39:28.011Z,99284.75
2023-02-23T13:42:17.705Z,99287.47
2023-02-23T13:44:53.588Z,99287.84
2023-02-23T13:47:39.353Z,99283.13
2023-02-23T13:50:17.746Z,99284.44
2023-02-23T13:52:47.384Z,99276.19
2023-02-23T13:55:40.033Z,99285.81
2023-02-23T13:58:11.798Z,99277.22
2023-02-23T14:00:39.498Z,99279.22
2023-02-23T14:03:08.064Z,99281.00
2023-02-23T14:05:38.406Z,99281.72
2023-02-23T14:08:06.050Z,99285.59
2023-02-23T14:10:39.363Z,99285.44
2023-02-23T14:13:15.740Z,99284.31
2023-02-23T14:15:53.119Z,99286.06
2023-02-23T14:18:21.016Z,99284.16
2023-02-23T14:21:02.434Z,99277.94
2023-02-23T14:23:35.557Z,99283.91
2023-02-23T14:26:15.908Z,99277.13
2023-02-23T14:28:50.489Z,99285.66
2023-02-23T14:31:21.002Z,99274.53
2023-02-23T14:33:49.893Z,99285.47
2023-02-23T14:36:22.765Z,99278.63
2023-02-23T14:39:02.248Z,99281.16
2023-02-23T14:41:39.508Z,99278.31
2023-02-23T14:44:43.565Z,99278.91
2023-02-23T14:47:21.823Z,99275.84
2023-02-23T14:50:01.642Z,99276.50
2023-02-23T14:52:39.411Z,99284.25
2023-02-23T14:55:12.000Z,99281.06
2023-02-23T14:57:42.536Z,99279.66
2023-02-23T15:00:15.320Z,99275.16
2023-02-23T15:02:56.515Z,99285.25
2023-02-23T15:05:26.708Z,99284.72
2023-02-23T15:07:54.772Z,99291.53
2023-02-23T15:10:35.544Z,99287.88
2023-02-23T15:13:10.980Z,99278.03
2023-02-23T15:15:40.678Z,99284.50
2023-02-23T15:18:39.411Z,99283.03
2023-02-23T15:21:27.066Z,99287.09
2023-02-23T15:24:16.747Z,99273.06
2023-02-23T15:26:43.909Z,99281.38
2023-02-23T15:29:10.607Z,99292.59
2023-02-23T15:34:03.820Z,99285.75
2023-02-23T15:39:07.077Z,99282.47
2023-02-23T15:41:37.042Z,99283.50
2023-02-23T15:44:13.006Z,99287.97
2023-02-23T15:46:41.641Z,99281.03
2023-02-23T15:49:14.513Z,99285.06
2023-02-23T15:51:49.083Z,99283.56
2023-02-23T15:54:29.823Z,99284.41
2023-02-23T15:57:03.107Z,99289.25
2023-02-23T15:59:34.869Z,99285.06
2023-02-23T16:02:03.653Z,99290.22
2023-02-23T16:04:33.202Z,99292.38
2023-02-23T16:07:17.193Z,99292.47
2023-02-23T16:09:55.989Z,99292.53
2023-02-23T16:12:25.104Z,99285.38
2023-02-23T16:15:07.562Z,99291.38
2023-02-23T16:17:38.478Z,99292.44
2023-02-23T16:20:17.416Z,99290.38
2023-02-23T16:22:55.062Z,99290.16
2023-02-23T16:25:25.564Z,99289.66
2023-02-23T16:28:01.838Z,99287.19
2023-02-23T16:30:32.260Z,99285.75
2023-02-23T16:33:23.711Z,99294.03
2023-02-23T16:36:10.719Z,99293.88
2023-02-23T16:38:39.444Z,99292.03
2023-02-23T16:41:22.324Z,99302.81
2023-02-23T16:43:51.086Z,99299.59
2023-02-23T16:46:19.259Z,99297.13
2023-02-23T16:48:46.588Z,99294.25
2023-02-23T16:51:18.994Z,99296.34
2023-02-23T16:53:46.145Z,99299.28
2023-02-23T16:56:17.223Z,99302.16
2023-02-23T16:58:47.215Z,99307.31
2023-02-23T17:01:17.406Z,99304.25
2023-02-23T17:03:52.722Z,99306.31
2023-02-23T17:06:21.119Z,99307.53
2023-02-23T17:08:57.666Z,99305.91
2023-02-23T17:11:24.773Z,99303.81
2023-02-23T17:13:51.837Z,99305.47
2023-02-23T17:16:18.942Z,99307.38
2023-02-23T17:18:47.489Z,99309.47
2023-02-23T17:21:15.068Z,99313.63
2023-02-23T17:23:51.428Z,99317.59
2023-02-23T17:26:21.102Z,99315.94
2023-02-23T17:28:48.171Z,99318.63
2023-02-23T17:31:16.823Z,99315.94
2023-02-23T17:33:44.351Z,99321.31
2023-02-23T17:36:16.460Z,99319.66
2023-02-23T17:38:46.170Z,99317.63
2023-02-23T17:41:18.048Z,99322.59
2023-02-23T17:43:45.240Z,99318.06
2023-02-23T17:46:12.998Z,99318.06
2023-02-23T17:48:41.030Z,99320.78
2023-02-23T17:51:10.375Z,99326.16
2023-02-23T17:53:37.096Z,99319.13
2023-02-23T17:56:04.349Z,99327.41
2023-02-23T17:58:31.453Z,99321.19
2023-02-23T18:01:00.176Z,99326.00
2023-02-23T18:03:32.435Z,99321.88
2023-02-23T18:06:03.675Z,99317.31
2023-02-23T18:08:30.863Z,99316.28
2023-02-23T18:10:57.949Z,99322.50
2023-02-23T18:13:25.667Z,99314.22
2023-02-23T18:15:55.957Z,99321.47
2023-02-23T18:18:24.307Z,99326.44
2023-02-23T18:20:53.129Z,99321.28
2023-02-23T18:23:27.111Z,99321.88
2023-02-23T18:25:53.816Z,99318.16
2023-02-23T18:28:21.045Z,99317.13
2023-02-23T18:30:48.009Z,99313.19
2023-02-23T18:33:14.912Z,99320.84
2023-02-23T18:35:45.295Z,99316.50
2023-02-23T18:38:14.431Z,99313.22
2023-02-23T18:40:41.634Z,99321.69
2023-02-23T18:43:09.170Z,99309.06
2023-02-23T18:45:39.660Z,99309.53
2023-02-23T18:48:16.080Z,99310.56
2023-02-23T18:50:42.780Z,99300.47
2023-02-23T18:53:11.043Z,99299.81
2023-02-23T18:55:39.477Z,99300.84
2023-02-23T18:58:06.189Z,99299.66
2023-02-23T19:00:39.817Z,99295.94
2023-02-23T19:03:06.810Z,99301.31
2023-02-23T19:05:34.773Z,99305.25
2023-02-23T19:08:01.484Z,99297.19
2023-02-23T19:10:30.548Z,99294.28
2023-02-23T19:12:57.524Z,99295.47
2023-02-23T19:15:24.318Z,99300.06
2023-02-23T19:17:51.424Z,99298.41
2023-02-23T19:20:18.353Z,99289.75
2023-02-23T19:22:52.395Z,99295.53
2023-02-23T19:25:19.229Z,99295.97
2023-02-23T19:27:46.050Z,99298.84
2023-02-23T19:30:14.700Z,99293.88
2023-02-23T19:32:42.648Z,99288.94
2023-02-23T19:35:15.055Z,99291.84
2023-02-23T19:37:52.506Z,99279.44
2023-02-23T19:40:23.208Z,99293.13
2023-02-23T19:42:52.906Z,99287.78
2023-02-23T19:45:19.897Z,99292.53
2023-02-23T19:47:46.692Z,99303.25
2023-02-23T19:50:17.169Z,99298.09
2023-02-23T19:52:45.648Z,99300.59
2023-02-23T19:55:13.012Z,99300.59
2023-02-23T19:57:40.423Z,99301.41
2023-02-23T20:00:11.671Z,99307.63
2023-02-23T20:02:43.045Z,99308.66
2023-02-23T20:05:14.718Z,99304.72
2023-02-23T20:07:41.642Z,99307.00
2023-02-23T20:10:10.372Z,99304.72
2023-02-23T20:12:37.134Z,99308.22
2023-02-23T20:15:04.390Z,99305.56
2023-02-23T20:17:31.263Z,99310.09
2023-02-23T20:19:58.093Z,99308.44
2023-02-23T20:22:24.847Z,99311.34
2023-02-23T20:24:51.525Z,99307.22
2023-02-23T20:27:22.724Z,99316.31
2023-02-23T20:29:50.954Z,99316.31
2023-02-23T20:32:17.959Z,99314.66
2023-02-23T20:34:46.161Z,99316.31
2023-02-23T20:37:12.868Z,99313.84
2023-02-23T20:39:39.562Z,99313.25
2023-02-23T20:42:06.361Z,99309.75
2023-02-23T20:44:33.452Z,99312.81
2023-02-23T20:47:01.165Z,99316.53
2023-02-23T20:49:28.200Z,99317.34
2023-02-23T20:51:54.952Z,99316.16
2023-02-23T20:54:21.890Z,99321.94
2023-02-23T20:56:59.079Z,99315.13
2023-02-23T20:59:30.105Z,99315.94
2023-02-23T21:01:57.221Z,99310.56
2023-02-23T21:04:23.937Z,99309.75
2023-02-23T21:06:51.052Z,99308.50
2023-02-23T21:09:18.008Z,99314.31
2023-02-23T21:11:46.536Z,99311.41
2023-02-23T21:14:14.414Z,99308.94
2023-02-23T21:16:46.673Z,99312.66
2023-02-23T21:19:16.106Z,99313.88
2023-02-23T21:21:47.245Z,99310.38
2023-02-23T21:24:15.433Z,99313.88
2023-02-23T21:26:42.913Z,99311.63
2023-02-23T21:29:14.937Z,99306.03
2023-02-23T21:31:43.425Z,99316.56
2023-02-23T21:34:11.240Z,99305.22
2023-02-23T21:36:39.592Z,99303.13
2023-02-23T21:39:06.867Z,99305.63
2023-02-23T21:41:34.221Z,99307.91
2023-02-23T21:44:02.015Z,99299.41
2023-02-23T21:46:28.755Z,99306.84
2023-02-23T21:48:59.352Z,99305.63
2023-02-23T21:51:29.543Z,99302.31
2023-02-23T21:53:58.207Z,99304.78
2023-02-23T21:56:25.449Z,99313.88
2023-02-23T21:58:54.990Z,99302.97
2023-02-23T22:01:26.987Z,99306.47
2023-02-23T22:03:55.221Z,99300.69
2023-02-23T22:06:28.594Z,99302.34
2023-02-23T22:08:56.905Z,99302.13
2023-02-23T22:11:27.321Z,99308.94
2023-02-23T22:13:59.700Z,99311.84
2023-02-23T22:16:29.768Z,99305.84
2023-02-23T22:18:56.998Z,99305.44
2023-02-23T22:21:24.079Z,99308.53
2023-02-23T22:23:53.641Z,99298.25
2023-02-23T22:26:20.683Z,99297.78
2023-02-23T22:28:47.524Z,99301.94
2023-02-23T22:31:15.472Z,99291.22
2023-02-23T22:33:44.295Z,99296.38
2023-02-23T22:36:13.409Z,99294.94
2023-02-23T22:38:41.883Z,99297.00
2023-02-23T22:41:12.158Z,99294.31
2023-02-23T22:43:39.652Z,99299.06
2023-02-23T22:46:08.135Z,99304.00
2023-02-23T22:48:36.030Z,99300.69
2023-02-23T22:51:03.352Z,99289.13
2023-02-23T22:53:30.732Z,99292.03
2023-02-23T22:55:58.377Z,99298.22
2023-02-23T22:58:26.543Z,99297.16
2023-02-23T23:01:03.711Z,99294.47
2023-02-23T23:03:35.959Z,99289.91
2023-02-23T23:06:04.894Z,99291.34
2023-02-23T23:08:36.677Z,99289.72
2023-02-23T23:11:09.858Z,99292.41
2023-02-23T23:13:44.772Z,99296.31
2023-02-23T23:16:30.193Z,99290.94
2023-02-23T23:19:12.494Z,99286.41
2023-02-23T23:21:41.416Z,99272.56
2023-02-23T23:24:13.558Z,99280.00
2023-02-23T23:26:41.488Z,99277.13
2023-02-23T23:29:14.525Z,99271.78
2023-02-23T23:31:45.952Z,99261.03
2023-02-23T23:34:13.927Z,99272.19
2023-02-23T23:36:49.689Z,99259.56
2023-02-23T23:39:19.020Z,99261.00
2023-02-23T23:41:48.291Z,99262.25
2023-02-23T23:44:21.405Z,99254.81
2023-02-23T23:46:53.148Z,99254.00
2023-02-23T23:49:22.483Z,99253.56
2023-02-23T23:51:51.567Z,99249.22
2023-02-23T23:54:21.754Z,99244.25
2023-02-23T23:56:50.167Z,99240.53
2023-02-23T23:59:20.606Z,99243.22
